Terminal Aerodrome Forecast
Issued by NWS

Home | Current Version | Previous Version | Text Only | Print | Product List | Glossary On
Versions: 1 2 3 4 5 6 7 8 9 10 11 12
000
FTUS45 KTFX 181125 AAA
TAFBZN
TAF AMD
KBZN 181125Z 1811/1912 16007KT P6SM SCT150 BKN200
     FM190300 16006KT P6SM SCT150
     FM191100 16006KT P6SM BKN120=

USA.gov is the U.S. government's official web portal to all federal, state and local government web resources and services.